Terminal Aerodrome Forecast
Issued by NWS Austin/San Antonio, TX

Home | Current Version | Previous Version | Text Only | Print | Product List | Glossary On
Versions: 1 2 3 4 5 6 7 8 9 10 11 12 13 14 15 16 17
000
FTUS44 KEWX 220315 AAD
TAFAUS
TAF AMD
KAUS 220315Z 2203/2306 08002KT 1SM BR BKN003
      TEMPO 2203/2204 00000KT 1/4SM FG BKN002
     FM220400 35013KT P6SM SCT040
     FM220700 34014KT P6SM SCT250=

USA.gov is the U.S. government's official web portal to all federal, state and local government web resources and services.